Time;durP1;ratioP1;P1;durP2;ratioP2;P2;SDS_P1;SDS_P2;PMS_P1;PMS_P2;Temp;Humidity;BMP_temperature;BMP_pressure;BME280_temperature;BME280_humidity;BME280_pressure;Samples;Min_cycle;Max_cycle;Signal;HPM_P1;HPM_P2
2022/10/27 00:02:22;;;;;;;8.63;3.77;;;17.40;81.50;;;;;;5017236;28;20177;-81
2022/10/27 00:04:47;;;;;;;7.80;3.60;;;17.50;81.40;;;;;;5036917;28;20657;-80
2022/10/27 00:07:17;;;;;;;8.10;3.80;;;17.60;79.00;;;;;;5019882;28;20177;-79
2022/10/27 00:09:43;;;;;;;7.00;3.13;;;17.60;77.00;;;;;;5020338;28;20731;-79
2022/10/27 00:12:08;;;;;;;10.30;4.30;;;17.60;74.90;;;;;;5017151;28;20210;-80
2022/10/27 00:14:34;;;;;;;7.07;3.77;;;17.50;75.70;;;;;;5002655;28;20177;-80
2022/10/27 00:17:00;;;;;;;8.80;3.57;;;17.50;75.80;;;;;;5033830;28;20166;-81
2022/10/27 00:19:25;;;;;;;7.73;3.30;;;17.50;77.20;;;;;;5017750;28;20176;-81
2022/10/27 00:21:51;;;;;;;8.87;3.80;;;17.50;77.50;;;;;;5018124;28;20170;-80
2022/10/27 00:24:18;;;;;;;5.70;3.20;;;17.50;77.80;;;;;;5019048;28;20190;-82
2022/10/27 00:26:46;;;;;;;8.00;3.43;;;17.50;77.50;;;;;;5017412;28;20207;-80
2022/10/27 00:29:12;;;;;;;8.13;3.90;;;17.60;75.40;;;;;;4985056;28;20581;-80
2022/10/27 00:31:38;;;;;;;7.83;3.77;;;17.60;72.50;;;;;;5018076;28;20243;-80
2022/10/27 00:34:04;;;;;;;23.90;4.33;;;17.60;72.80;;;;;;5036430;28;20544;-81
2022/10/27 00:36:30;;;;;;;7.90;2.93;;;17.50;72.70;;;;;;5034252;28;20174;-80
2022/10/27 00:38:57;;;;;;;10.57;3.53;;;17.50;71.80;;;;;;5033955;28;20713;-80
2022/10/27 00:41:29;;;;;;;8.63;3.17;;;17.50;70.70;;;;;;5016262;28;20719;-81
2022/10/27 00:43:56;;;;;;;8.70;3.63;;;17.60;70.80;;;;;;5016597;28;20191;-81
2022/10/27 00:46:45;;;;;;;8.17;3.37;;;17.70;64.80;;;;;;5034409;28;20193;-81
2022/10/27 00:49:21;;;;;;;7.60;3.23;;;17.70;63.40;;;;;;5015813;28;20182;-80
2022/10/27 00:51:55;;;;;;;8.50;3.47;;;17.70;61.00;;;;;;5015767;28;20237;-80
2022/10/27 00:54:23;;;;;;;6.70;3.47;;;17.90;62.70;;;;;;5015675;28;20170;-80
2022/10/27 00:56:51;;;;;;;7.97;3.80;;;17.80;59.40;;;;;;5044839;28;20241;-83
2022/10/27 00:59:17;;;;;;;7.33;3.27;;;17.90;56.50;;;;;;5054299;28;20234;-80
2022/10/27 01:01:43;;;;;;;10.37;4.10;;;17.90;56.00;;;;;;5037651;28;20162;-79
2022/10/27 01:04:10;;;;;;;7.53;3.50;;;17.90;55.20;;;;;;5056565;28;20157;-78
2022/10/27 01:06:39;;;;;;;7.13;3.57;;;17.80;55.50;;;;;;5037979;28;20270;-80
2022/10/27 01:09:08;;;;;;;7.07;3.10;;;17.50;58.90;;;;;;5018670;28;20323;-80
2022/10/27 01:11:34;;;;;;;7.67;3.40;;;17.50;61.20;;;;;;5017748;28;20272;-80
2022/10/27 01:14:00;;;;;;;7.67;3.17;;;17.50;62.00;;;;;;5015678;28;20657;-80
2022/10/27 01:16:58;;;;;;;7.57;3.37;;;17.50;61.90;;;;;;5033841;28;20258;-80
2022/10/27 01:19:28;;;;;;;5.20;2.83;;;17.50;61.60;;;;;;5012313;28;20219;-80
2022/10/27 01:22:05;;;;;;;8.03;3.40;;;17.60;61.80;;;;;;5015385;28;20177;-80
2022/10/27 01:24:40;;;;;;;5.33;2.50;;;17.50;60.10;;;;;;5032458;28;20201;-79
2022/10/27 01:27:35;;;;;;;5.70;2.90;;;17.40;61.50;;;;;;5033766;28;20170;-82
2022/10/27 01:30:06;;;;;;;6.50;2.50;;;17.40;60.90;;;;;;5005414;28;20212;-80
2022/10/27 01:32:38;;;;;;;5.97;2.70;;;17.50;57.90;;;;;;5015458;28;20178;-82
2022/10/27 01:35:22;;;;;;;9.50;2.87;;;17.40;58.00;;;;;;5016836;28;20188;-81
2022/10/27 01:37:59;;;;;;;7.83;3.27;;;17.40;58.40;;;;;;5032945;28;20640;-81
2022/10/27 01:40:48;;;;;;;6.70;2.50;;;17.60;56.70;;;;;;5017311;28;20209;-82
2022/10/27 01:43:20;;;;;;;4.40;2.50;;;17.60;53.80;;;;;;5034515;28;20261;-80
2022/10/27 01:45:47;;;;;;;5.50;2.60;;;17.70;49.20;;;;;;5032420;28;20539;-80
2022/10/27 01:48:13;;;;;;;7.80;2.60;;;17.70;46.10;;;;;;5015427;28;20634;-80
2022/10/27 01:50:41;;;;;;;6.70;2.33;;;17.90;41.30;;;;;;5015398;28;20217;-79
2022/10/27 01:53:09;;;;;;;6.80;2.77;;;17.70;41.40;;;;;;5033148;28;20618;-82
2022/10/27 01:55:41;;;;;;;6.33;1.90;;;17.70;40.30;;;;;;5035578;28;20232;-80
2022/10/27 01:58:26;;;;;;;6.93;2.30;;;17.60;44.00;;;;;;5018808;28;20200;-80
2022/10/27 02:01:10;;;;;;;8.33;2.10;;;17.70;43.00;;;;;;5036679;28;20176;-80
2022/10/27 02:03:51;;;;;;;5.30;2.27;;;17.70;40.00;;;;;;5036586;28;20186;-81
2022/10/27 02:06:56;;;;;;;6.17;1.93;;;17.60;42.10;;;;;;5018999;28;20703;-80
2022/10/27 02:09:31;;;;;;;6.60;2.40;;;17.70;41.50;;;;;;5035733;28;20209;-81
2022/10/27 02:12:00;;;;;;;4.17;2.00;;;17.70;40.40;;;;;;5036982;28;20252;-79
2022/10/27 02:14:27;;;;;;;5.37;2.20;;;17.80;38.70;;;;;;5044521;28;20249;-80
2022/10/27 02:16:53;;;;;;;5.03;2.10;;;17.90;34.50;;;;;;5031468;28;20647;-81
2022/10/27 02:19:24;;;;;;;6.83;2.23;;;17.90;30.10;;;;;;5033129;28;20285;-79
2022/10/27 02:21:54;;;;;;;5.20;2.17;;;17.80;31.10;;;;;;5042658;28;20171;-79
2022/10/27 02:24:21;;;;;;;6.67;2.13;;;17.80;32.80;;;;;;5053905;28;20172;-79
2022/10/27 02:26:58;;;;;;;6.47;2.50;;;17.70;33.60;;;;;;5046958;28;20174;-80
2022/10/27 02:29:46;;;;;;;7.57;2.43;;;17.60;34.80;;;;;;5024004;28;20183;-80
2022/10/27 02:32:20;;;;;;;6.13;2.27;;;17.70;31.90;;;;;;5036034;28;20651;-81
2022/10/27 02:34:52;;;;;;;5.37;1.93;;;17.60;30.30;;;;;;5036574;28;20263;-82
2022/10/27 02:37:24;;;;;;;6.17;1.90;;;17.60;29.10;;;;;;5018875;28;20185;-79
2022/10/27 02:39:50;;;;;;;8.93;2.83;;;17.70;28.90;;;;;;5036793;28;20169;-80
2022/10/27 02:42:15;;;;;;;7.43;3.63;;;17.60;26.90;;;;;;5017685;28;20187;-81
2022/10/27 02:44:41;;;;;;;5.47;2.43;;;17.60;24.90;;;;;;5018013;28;20527;-80
2022/10/27 02:47:07;;;;;;;4.77;2.33;;;17.50;24.00;;;;;;5036258;28;20564;-80
2022/10/27 02:49:33;;;;;;;5.13;2.00;;;17.40;23.50;;;;;;5035343;28;20258;-79
2022/10/27 02:51:58;;;;;;;4.03;1.57;;;17.40;21.80;;;;;;5035961;28;20239;-81
2022/10/27 02:54:24;;;;;;;6.57;2.30;;;17.50;19.70;;;;;;5017142;28;20221;-79
2022/10/27 02:56:50;;;;;;;6.13;1.73;;;17.60;18.30;;;;;;5017120;28;20264;-81
2022/10/27 02:59:15;;;;;;;3.97;1.60;;;17.50;16.40;;;;;;5017528;28;20174;-80
2022/10/27 03:01:41;;;;;;;5.23;2.00;;;17.50;14.20;;;;;;5035041;28;20177;-81
2022/10/27 03:04:07;;;;;;;5.23;1.57;;;17.40;14.00;;;;;;5017317;28;20179;-80
2022/10/27 03:06:33;;;;;;;5.17;1.80;;;17.40;15.10;;;;;;5015952;28;20544;-80
2022/10/27 03:08:58;;;;;;;4.30;1.70;;;17.40;12.90;;;;;;5017629;28;20178;-80
2022/10/27 03:11:24;;;;;;;5.70;2.13;;;17.50;10.60;;;;;;5034968;28;20259;-80
2022/10/27 03:13:50;;;;;;;7.30;2.07;;;17.50;10.60;;;;;;5017215;28;20255;-79
2022/10/27 03:16:15;;;;;;;4.60;2.00;;;17.50;7.90;;;;;;5017281;28;20181;-81
2022/10/27 03:18:41;;;;;;;5.30;2.00;;;17.60;4.80;;;;;;5016600;28;20167;-81
2022/10/27 03:21:06;;;;;;;4.47;1.93;;;17.60;4.50;;;;;;5035425;28;20261;-79
2022/10/27 03:23:32;;;;;;;5.47;1.83;;;17.60;1.20;;;;;;5035633;28;20182;-80
2022/10/27 03:25:59;;;;;;;3.97;1.67;;;17.70;1.00;;;;;;5034767;28;20173;-82
2022/10/27 03:28:25;;;;;;;2.47;1.20;;;18.00;1.00;;;;;;5016756;28;20238;-79
2022/10/27 03:30:50;;;;;;;4.57;1.60;;;17.90;1.00;;;;;;5016443;28;20216;-81
2022/10/27 03:33:16;;;;;;;4.87;1.53;;;17.80;1.00;;;;;;5034521;28;20216;-81
2022/10/27 03:35:41;;;;;;;5.63;1.50;;;17.80;1.00;;;;;;5034440;28;20172;-82
2022/10/27 03:38:08;;;;;;;3.93;1.90;;;17.80;1.00;;;;;;5016576;28;20180;-81
2022/10/27 03:40:34;;;;;;;7.13;1.47;;;17.80;1.00;;;;;;5034093;28;20266;-81
2022/10/27 03:43:00;;;;;;;6.23;1.80;;;17.80;1.00;;;;;;5034397;28;20208;-82
2022/10/27 03:45:26;;;;;;;4.70;1.67;;;18.00;1.00;;;;;;5032949;28;20229;-81
2022/10/27 03:48:12;;;;;;;4.67;1.77;;;18.00;1.00;;;;;;5016402;28;20345;-79
2022/10/27 03:50:38;;;;;;;5.10;1.80;;;17.90;1.00;;;;;;5032979;28;20616;-80
2022/10/27 03:53:04;;;;;;;4.53;1.60;;;17.90;1.00;;;;;;5015482;28;20233;-82
2022/10/27 03:55:30;;;;;;;6.67;1.97;;;17.90;1.20;;;;;;5034120;28;20181;-81
2022/10/27 03:57:57;;;;;;;4.23;2.00;;;17.90;3.60;;;;;;5016127;28;20207;-82
2022/10/27 04:00:22;;;;;;;7.00;1.93;;;17.90;5.70;;;;;;5034085;28;20252;-81
2022/10/27 04:02:52;;;;;;;5.90;1.50;;;17.90;4.00;;;;;;5033568;28;20264;-81
2022/10/27 04:05:17;;;;;;;6.43;2.00;;;18.00;4.10;;;;;;5015944;28;20177;-81
2022/10/27 04:07:43;;;;;;;5.57;1.47;;;18.00;3.80;;;;;;5033387;28;20180;-81
2022/10/27 04:10:08;;;;;;;4.37;1.70;;;18.00;2.90;;;;;;5033911;28;20225;-81
2022/10/27 04:12:34;;;;;;;4.27;1.53;;;17.90;3.30;;;;;;5033868;28;20563;-80
2022/10/27 04:15:00;;;;;;;4.60;1.73;;;17.80;4.20;;;;;;5015928;28;20635;-80
2022/10/27 04:17:25;;;;;;;3.70;1.50;;;17.80;5.40;;;;;;5033177;28;20177;-81
2022/10/27 04:19:51;;;;;;;5.67;1.70;;;17.70;6.60;;;;;;5015837;28;20179;-80
2022/10/27 04:22:16;;;;;;;6.70;2.67;;;17.80;6.10;;;;;;5017014;28;20265;-79
2022/10/27 04:24:42;;;;;;;5.63;1.90;;;17.70;7.60;;;;;;5041102;28;20186;-80
2022/10/27 04:27:08;;;;;;;5.67;1.70;;;17.60;7.90;;;;;;5050802;28;20234;-80
2022/10/27 04:29:34;;;;;;;3.40;1.70;;;17.70;6.90;;;;;;5029802;28;20169;-80
2022/10/27 04:31:59;;;;;;;3.80;1.60;;;17.70;3.80;;;;;;5034741;28;20171;-80
2022/10/27 04:34:26;;;;;;;5.13;1.40;;;17.70;3.80;;;;;;5017074;28;20331;-80
2022/10/27 04:36:54;;;;;;;4.40;1.40;;;17.60;1.40;;;;;;5015721;28;20805;-80
2022/10/27 04:39:21;;;;;;;3.23;1.20;;;17.60;1.00;;;;;;5016706;28;20176;-81
2022/10/27 04:41:52;;;;;;;6.23;1.53;;;17.60;1.00;;;;;;5033490;28;20165;-81
2022/10/27 04:44:18;;;;;;;7.57;1.23;;;17.70;1.00;;;;;;5035350;28;20181;-80
2022/10/27 04:46:44;;;;;;;3.77;1.27;;;17.70;1.00;;;;;;5015525;28;20245;-80
2022/10/27 04:49:09;;;;;;;2.93;1.20;;;17.80;1.00;;;;;;5017678;28;20263;-80
2022/10/27 04:51:35;;;;;;;2.97;1.23;;;17.80;1.00;;;;;;5015171;28;20243;-80
2022/10/27 04:54:01;;;;;;;4.63;1.50;;;17.80;1.00;;;;;;5035526;28;20255;-80
2022/10/27 04:56:27;;;;;;;4.40;1.20;;;17.80;1.00;;;;;;5032967;28;20187;-80
2022/10/27 04:58:53;;;;;;;5.23;1.30;;;17.80;1.00;;;;;;5017212;28;20280;-81
2022/10/27 05:01:19;;;;;;;5.50;2.20;;;17.90;1.00;;;;;;5034800;28;20246;-79
2022/10/27 05:03:48;;;;;;;4.73;1.33;;;17.90;1.00;;;;;;5016598;28;20264;-81
2022/10/27 05:06:14;;;;;;;3.90;1.10;;;17.90;1.00;;;;;;5015528;28;20178;-81
2022/10/27 05:08:40;;;;;;;5.73;1.23;;;17.90;1.00;;;;;;5032783;28;20245;-82
2022/10/27 05:11:05;;;;;;;3.07;1.00;;;17.90;1.00;;;;;;5015315;28;20762;-82
2022/10/27 05:13:31;;;;;;;4.37;1.30;;;17.90;1.00;;;;;;5015492;28;20218;-81
2022/10/27 05:16:01;;;;;;;3.87;1.17;;;18.00;1.00;;;;;;5015485;28;20541;-81
2022/10/27 05:18:27;;;;;;;3.30;1.10;;;18.00;1.00;;;;;;5033080;28;20672;-81
2022/10/27 05:20:53;;;;;;;3.00;1.30;;;17.90;1.00;;;;;;5015044;28;20185;-82
2022/10/27 05:23:19;;;;;;;4.33;1.27;;;18.00;1.00;;;;;;5015569;28;20173;-82
2022/10/27 05:25:49;;;;;;;6.00;1.57;;;17.90;1.00;;;;;;5033326;28;20168;-82
2022/10/27 05:28:14;;;;;;;4.33;1.30;;;17.80;1.00;;;;;;5032727;28;20256;-80
2022/10/27 05:30:40;;;;;;;3.63;1.40;;;17.90;1.00;;;;;;5035348;28;20231;-79
2022/10/27 05:33:06;;;;;;;3.43;1.33;;;17.80;1.00;;;;;;5036335;28;20209;-80
2022/10/27 05:35:31;;;;;;;3.10;1.20;;;17.80;1.00;;;;;;5036477;28;20182;-82
2022/10/27 05:37:57;;;;;;;5.40;1.40;;;17.80;1.00;;;;;;5018982;28;20183;-82
2022/10/27 05:40:23;;;;;;;3.00;0.93;;;17.90;1.00;;;;;;5019267;28;20178;-81
2022/10/27 05:42:54;;;;;;;6.17;1.37;;;17.90;1.00;;;;;;5038489;28;20173;-81
2022/10/27 05:45:21;;;;;;;2.87;1.20;;;17.90;1.00;;;;;;5021518;28;20178;-81
2022/10/27 05:47:47;;;;;;;3.30;1.20;;;17.90;1.00;;;;;;5024873;28;20171;-83
2022/10/27 05:50:13;;;;;;;4.70;1.50;;;17.90;1.00;;;;;;5047452;28;20202;-82
2022/10/27 05:52:39;;;;;;;4.37;1.20;;;17.90;1.00;;;;;;5040287;28;20194;-83
2022/10/27 05:55:05;;;;;;;4.00;1.13;;;17.90;1.00;;;;;;5056105;28;20218;-81
2022/10/27 05:57:30;;;;;;;5.83;1.50;;;17.90;1.00;;;;;;5056027;28;20249;-83
2022/10/27 06:00:00;;;;;;;9.47;1.80;;;17.80;1.00;;;;;;5035423;28;20185;-80
2022/10/27 06:02:27;;;;;;;6.67;2.00;;;17.70;1.00;;;;;;5038972;28;20204;-84
2022/10/27 06:04:54;;;;;;;3.97;1.57;;;17.80;1.00;;;;;;5037878;28;20205;-80
2022/10/27 06:07:22;;;;;;;5.27;1.67;;;17.70;1.00;;;;;;5029250;28;20180;-79
2022/10/27 06:09:48;;;;;;;5.43;1.67;;;17.80;1.00;;;;;;5030822;28;20206;-81
2022/10/27 06:12:15;;;;;;;5.47;1.80;;;17.70;1.00;;;;;;5015439;28;20657;-83
2022/10/27 06:14:40;;;;;;;9.97;1.93;;;17.80;1.00;;;;;;5001077;28;20182;-83
2022/10/27 06:17:06;;;;;;;5.73;1.80;;;17.80;1.00;;;;;;5007566;28;20537;-83
2022/10/27 06:19:31;;;;;;;7.00;1.77;;;17.80;1.00;;;;;;4996281;28;20173;-81
2022/10/27 06:21:57;;;;;;;6.30;1.53;;;17.70;1.00;;;;;;5016975;28;20173;-81
2022/10/27 06:24:23;;;;;;;7.50;1.40;;;17.80;1.00;;;;;;4998601;28;20171;-82
2022/10/27 06:26:48;;;;;;;5.93;1.83;;;17.70;1.00;;;;;;4998160;28;20567;-84
2022/10/27 06:29:14;;;;;;;4.67;1.37;;;17.60;1.00;;;;;;5015851;28;20185;-79
2022/10/27 06:31:41;;;;;;;7.37;1.90;;;17.60;1.00;;;;;;5014785;28;20230;-79
2022/10/27 06:34:07;;;;;;;5.93;1.93;;;17.60;1.00;;;;;;5030538;28;20667;-80
2022/10/27 06:36:33;;;;;;;6.43;2.63;;;17.60;1.00;;;;;;5015011;28;20182;-82
2022/10/27 06:38:58;;;;;;;6.77;2.27;;;17.50;1.00;;;;;;5015438;28;20225;-82
2022/10/27 06:41:24;;;;;;;5.53;1.53;;;17.60;1.00;;;;;;5026188;28;20180;-81
2022/10/27 06:43:49;;;;;;;7.23;1.63;;;17.60;1.00;;;;;;5035057;28;20173;-81
2022/10/27 06:46:15;;;;;;;8.63;2.20;;;17.70;1.00;;;;;;5035143;28;20158;-81
2022/10/27 06:48:41;;;;;;;6.07;1.60;;;17.80;1.00;;;;;;5035658;28;20186;-82
2022/10/27 06:51:06;;;;;;;11.20;2.57;;;17.80;1.00;;;;;;5036076;28;20413;-82
2022/10/27 06:53:32;;;;;;;5.63;1.80;;;17.80;1.00;;;;;;5037309;28;20608;-82
2022/10/27 06:55:58;;;;;;;7.30;1.70;;;17.80;1.00;;;;;;5017410;28;20197;-84
2022/10/27 06:58:24;;;;;;;4.30;1.50;;;17.80;1.00;;;;;;5017415;28;20201;-84
2022/10/27 07:00:49;;;;;;;4.17;1.50;;;17.70;1.00;;;;;;5035276;28;20641;-82
2022/10/27 07:03:15;;;;;;;8.17;2.00;;;17.70;1.00;;;;;;5035414;28;20615;-83
2022/10/27 07:05:41;;;;;;;6.40;1.43;;;17.70;1.00;;;;;;5037196;28;20234;-82
2022/10/27 07:08:06;;;;;;;4.77;1.87;;;17.70;1.00;;;;;;5035913;28;20623;-81
2022/10/27 07:10:32;;;;;;;10.53;2.53;;;17.80;1.00;;;;;;5035923;28;20193;-82
2022/10/27 07:13:00;;;;;;;7.50;1.70;;;17.60;1.00;;;;;;5037355;28;20163;-81
2022/10/27 07:15:30;;;;;;;4.77;1.70;;;17.60;1.00;;;;;;5036821;28;20196;-81
2022/10/27 07:17:59;;;;;;;4.87;1.80;;;17.70;1.00;;;;;;5037907;28;20153;-81
2022/10/27 07:20:25;;;;;;;6.17;2.03;;;17.80;1.00;;;;;;5037303;28;20584;-81
2022/10/27 07:22:50;;;;;;;5.43;1.80;;;17.80;1.00;;;;;;5018225;28;20183;-82
2022/10/27 07:25:16;;;;;;;6.47;1.93;;;17.90;1.00;;;;;;5034109;28;20195;-81
2022/10/27 07:27:46;;;;;;;5.40;1.70;;;17.90;1.00;;;;;;5034876;28;20197;-81
2022/10/27 07:30:12;;;;;;;4.57;1.80;;;18.00;1.00;;;;;;5034984;28;20204;-82
2022/10/27 07:32:37;;;;;;;6.17;2.60;;;18.10;1.00;;;;;;5035099;28;20211;-83
2022/10/27 07:35:03;;;;;;;7.20;2.20;;;18.20;1.00;;;;;;5016372;28;20598;-80
2022/10/27 07:37:29;;;;;;;4.50;2.47;;;18.10;1.00;;;;;;5014218;28;20174;-81
2022/10/27 07:39:55;;;;;;;6.20;1.93;;;18.10;1.00;;;;;;5032598;28;20202;-81
2022/10/27 07:42:20;;;;;;;10.60;2.70;;;18.20;1.00;;;;;;5022150;28;20175;-81
2022/10/27 07:44:46;;;;;;;5.50;1.97;;;18.40;1.00;;;;;;5033620;28;20623;-81
2022/10/27 07:47:11;;;;;;;5.50;1.70;;;18.50;1.00;;;;;;5033792;28;20265;-80
2022/10/27 07:49:37;;;;;;;7.93;1.90;;;18.50;1.00;;;;;;5033956;28;20174;-81
2022/10/27 07:52:03;;;;;;;6.80;2.27;;;18.60;1.00;;;;;;5033438;28;20180;-82
2022/10/27 07:54:28;;;;;;;5.57;1.80;;;18.60;1.00;;;;;;5047734;28;20235;-81
2022/10/27 07:56:54;;;;;;;8.23;2.07;;;18.80;1.00;;;;;;5052966;28;20166;-80
2022/10/27 07:59:20;;;;;;;6.73;2.30;;;18.90;1.00;;;;;;5054011;28;20175;-79
2022/10/27 08:01:45;;;;;;;9.00;2.20;;;19.00;1.00;;;;;;5038048;28;20194;-80
2022/10/27 08:04:11;;;;;;;7.00;1.97;;;18.80;1.00;;;;;;5034467;28;20171;-79
2022/10/27 08:06:38;;;;;;;5.43;1.97;;;18.80;1.00;;;;;;5035166;28;20163;-81
2022/10/27 08:09:04;;;;;;;8.17;2.17;;;18.90;1.00;;;;;;5034495;28;20199;-81
2022/10/27 08:11:30;;;;;;;6.67;2.07;;;19.00;1.00;;;;;;5033422;28;20224;-80
2022/10/27 08:13:56;;;;;;;6.10;2.00;;;19.00;1.00;;;;;;5033166;28;20215;-80
2022/10/27 08:16:21;;;;;;;6.87;2.20;;;19.00;1.00;;;;;;5032685;28;20675;-80
2022/10/27 08:18:47;;;;;;;5.03;1.90;;;19.00;1.00;;;;;;5015583;28;20246;-80
2022/10/27 08:21:12;;;;;;;5.13;1.93;;;19.00;1.00;;;;;;5015482;28;20249;-80
2022/10/27 08:23:40;;;;;;;7.67;2.33;;;19.10;1.00;;;;;;5014900;28;20626;-82
2022/10/27 08:26:06;;;;;;;6.87;1.70;;;19.20;1.00;;;;;;5033474;28;20190;-81
2022/10/27 08:28:31;;;;;;;6.43;2.00;;;19.30;1.00;;;;;;5037679;28;20596;-80
2022/10/27 08:30:58;;;;;;;5.80;2.27;;;19.30;1.00;;;;;;5035306;28;20703;-80
2022/10/27 08:33:24;;;;;;;7.37;2.67;;;19.30;1.00;;;;;;5015891;28;20197;-80
2022/10/27 08:35:50;;;;;;;12.60;2.80;;;19.40;1.00;;;;;;5034199;28;20264;-81
2022/10/27 08:38:17;;;;;;;7.90;2.67;;;19.50;1.00;;;;;;5032511;28;20174;-81
2022/10/27 08:41:03;;;;;;;7.23;2.37;;;19.70;1.00;;;;;;5033894;28;20177;-82
2022/10/27 08:43:42;;;;;;;14.80;6.43;;;19.70;1.00;;;;;;5015462;28;20166;-80
2022/10/27 08:46:32;;;;;;;8.33;2.50;;;19.80;1.00;;;;;;5032724;28;20172;-82
2022/10/27 08:49:02;;;;;;;11.17;2.73;;;19.90;1.00;;;;;;4992262;28;20191;-82
2022/10/27 08:51:30;;;;;;;7.63;2.13;;;19.80;1.00;;;;;;5032995;28;20212;-81
2022/10/27 08:53:58;;;;;;;7.13;2.53;;;20.00;1.00;;;;;;5033029;28;20169;-84
2022/10/27 08:56:30;;;;;;;7.80;2.33;;;20.00;1.00;;;;;;5016506;28;20661;-84
2022/10/27 08:58:56;;;;;;;7.63;2.70;;;20.00;1.00;;;;;;5033182;28;20192;-83
2022/10/27 09:01:47;;;;;;;6.47;2.30;;;20.00;1.00;;;;;;5015991;28;20185;-82
2022/10/27 09:04:24;;;;;;;8.60;3.00;;;20.10;1.00;;;;;;5035979;28;20191;-84
2022/10/27 09:07:12;;;;;;;5.83;2.13;;;20.20;1.00;;;;;;5037667;28;20176;-82
2022/10/27 09:09:44;;;;;;;7.73;3.00;;;20.30;1.00;;;;;;5037099;28;20177;-83
2022/10/27 09:12:34;;;;;;;6.50;2.23;;;20.50;1.00;;;;;;5035662;28;20614;-82
2022/10/27 09:15:24;;;;;;;6.47;2.23;;;20.60;1.00;;;;;;5031528;28;20214;-84
2022/10/27 09:18:14;;;;;;;7.17;2.47;;;20.60;1.00;;;;;;5037160;28;20194;-81
2022/10/27 09:20:52;;;;;;;11.07;2.67;;;20.60;1.00;;;;;;5037827;28;20167;-80
2022/10/27 09:23:24;;;;;;;5.70;2.30;;;20.70;1.00;;;;;;5033929;28;20156;-80
2022/10/27 09:25:52;;;;;;;8.80;2.57;;;20.80;1.00;;;;;;5054847;28;20173;-83
2022/10/27 09:28:35;;;;;;;7.33;2.50;;;20.90;1.00;;;;;;5054422;28;20187;-80
2022/10/27 09:31:03;;;;;;;13.37;3.50;;;21.00;1.00;;;;;;5048599;28;20199;-82
2022/10/27 09:33:33;;;;;;;9.27;2.57;;;20.90;1.00;;;;;;5044783;28;20268;-82
2022/10/27 09:36:13;;;;;;;8.00;2.63;;;20.90;1.00;;;;;;5041321;28;20169;-83
2022/10/27 09:38:39;;;;;;;9.67;2.80;;;20.80;1.00;;;;;;5036835;28;20162;-83
2022/10/27 09:41:06;;;;;;;11.10;2.67;;;20.80;1.00;;;;;;5036474;28;20156;-80
2022/10/27 09:43:32;;;;;;;7.93;2.43;;;20.90;1.00;;;;;;5036289;28;20484;-81
2022/10/27 09:46:05;;;;;;;7.40;2.43;;;20.90;1.00;;;;;;5038490;28;20630;-82
2022/10/27 09:48:34;;;;;;;7.23;2.47;;;21.00;1.00;;;;;;5043855;28;20198;-81
2022/10/27 09:51:12;;;;;;;5.73;2.80;;;21.10;1.00;;;;;;5044447;28;20221;-80
2022/10/27 09:53:42;;;;;;;6.67;2.50;;;21.20;1.00;;;;;;5052130;28;20172;-85
2022/10/27 09:56:12;;;;;;;8.47;2.70;;;21.20;1.00;;;;;;5053559;28;20198;-79
2022/10/27 09:58:51;;;;;;;8.50;2.40;;;21.20;1.00;;;;;;5056317;28;20280;-80
2022/10/27 10:01:20;;;;;;;8.40;2.40;;;21.30;1.00;;;;;;5052738;28;20730;-80
2022/10/27 10:04:19;;;;;;;11.33;2.90;;;21.50;1.00;;;;;;5045815;28;20190;-81
2022/10/27 10:06:55;;;;;;;9.00;3.27;;;21.60;1.00;;;;;;5041255;28;20172;-82
2022/10/27 10:09:28;;;;;;;7.80;3.23;;;21.60;1.00;;;;;;5038267;28;20235;-83
2022/10/27 10:12:12;;;;;;;6.23;3.00;;;21.70;1.00;;;;;;5038203;28;20202;-79
2022/10/27 10:14:37;;;;;;;6.47;2.63;;;21.60;1.00;;;;;;5035735;28;20248;-79
2022/10/27 10:17:03;;;;;;;6.30;2.80;;;21.50;1.00;;;;;;5033849;28;20216;-80
2022/10/27 10:19:29;;;;;;;11.10;3.00;;;21.60;1.00;;;;;;5034686;28;20176;-81
2022/10/27 10:21:58;;;;;;;11.07;2.63;;;21.60;1.00;;;;;;5034696;28;20263;-80
2022/10/27 10:24:25;;;;;;;9.53;3.10;;;21.50;1.00;;;;;;5038367;28;20180;-81
2022/10/27 10:26:54;;;;;;;8.50;2.60;;;21.50;1.00;;;;;;5037427;28;20245;-81
2022/10/27 10:29:48;;;;;;;8.50;3.50;;;21.40;1.00;;;;;;5040941;28;20175;-80
2022/10/27 10:32:16;;;;;;;9.00;3.00;;;21.50;1.00;;;;;;5039016;28;20196;-80
2022/10/27 10:34:43;;;;;;;12.37;2.90;;;21.50;1.00;;;;;;5045478;28;20203;-81
2022/10/27 10:37:29;;;;;;;11.60;3.30;;;21.40;1.00;;;;;;5045593;28;20171;-81
2022/10/27 10:40:15;;;;;;;7.50;2.90;;;21.60;1.00;;;;;;5034640;28;20199;-82
2022/10/27 10:42:46;;;;;;;9.03;3.20;;;21.70;1.00;;;;;;5018028;28;20524;-80
2022/10/27 10:45:25;;;;;;;7.07;3.17;;;21.70;1.00;;;;;;5017209;28;20223;-80
2022/10/27 10:48:04;;;;;;;11.83;3.50;;;21.90;1.00;;;;;;5034890;28;20538;-81
2022/10/27 10:50:41;;;;;;;5.33;3.07;;;21.90;1.00;;;;;;5034818;28;20194;-82
2022/10/27 10:53:24;;;;;;;8.47;3.20;;;22.10;1.00;;;;;;5035013;28;20179;-80
2022/10/27 10:55:52;;;;;;;9.23;3.33;;;22.00;1.00;;;;;;5034859;28;20176;-81
2022/10/27 10:58:20;;;;;;;10.83;3.57;;;22.10;1.00;;;;;;5033811;28;20593;-82
2022/10/27 11:00:56;;;;;;;10.43;4.50;;;22.10;1.00;;;;;;5034331;28;20168;-80
2022/10/27 11:03:24;;;;;;;8.07;3.00;;;22.00;1.00;;;;;;5035016;28;20220;-80
2022/10/27 11:05:58;;;;;;;9.87;3.07;;;22.00;1.00;;;;;;5035061;28;20171;-81
2022/10/27 11:08:46;;;;;;;9.60;3.53;;;22.00;1.00;;;;;;5034349;28;20167;-81
2022/10/27 11:11:18;;;;;;;7.93;3.37;;;22.10;1.00;;;;;;5014936;28;20687;-80
2022/10/27 11:13:52;;;;;;;6.93;3.30;;;22.30;1.00;;;;;;5034436;28;20259;-82
2022/10/27 11:16:19;;;;;;;12.67;3.60;;;22.30;1.00;;;;;;5034183;28;20203;-81
2022/10/27 11:19:00;;;;;;;14.60;3.90;;;22.40;1.00;;;;;;5017114;28;20195;-82
2022/10/27 11:21:38;;;;;;;12.40;3.67;;;22.60;1.00;;;;;;5035219;28;20185;-81
2022/10/27 11:24:29;;;;;;;10.63;3.50;;;22.70;1.00;;;;;;5033863;28;20171;-80
2022/10/27 11:27:20;;;;;;;13.37;3.50;;;22.70;1.00;;;;;;5032823;28;20177;-81
2022/10/27 11:29:57;;;;;;;10.93;3.87;;;22.90;1.00;;;;;;5033814;28;20203;-80
2022/10/27 11:32:51;;;;;;;12.07;3.97;;;23.10;1.00;;;;;;5016120;28;20231;-82
2022/10/27 11:35:25;;;;;;;10.67;3.67;;;23.30;1.00;;;;;;5033868;28;20191;-81
2022/10/27 11:38:07;;;;;;;10.27;3.60;;;23.20;1.00;;;;;;5033597;28;20172;-82
2022/10/27 11:40:45;;;;;;;9.77;3.63;;;23.30;1.00;;;;;;5034592;28;20183;-81
2022/10/27 11:43:22;;;;;;;8.67;3.57;;;23.30;1.00;;;;;;5035486;28;20263;-81
2022/10/27 11:46:16;;;;;;;11.90;3.33;;;23.30;1.00;;;;;;5033085;28;20162;-81
2022/10/27 11:48:47;;;;;;;12.57;3.87;;;23.20;1.00;;;;;;5034108;28;20169;-82
2022/10/27 11:51:29;;;;;;;10.20;4.07;;;23.30;1.00;;;;;;5015786;28;20247;-81
2022/10/27 11:53:55;;;;;;;8.83;4.00;;;23.40;1.00;;;;;;5033313;28;20184;-82
2022/10/27 11:56:30;;;;;;;12.17;3.47;;;23.50;1.00;;;;;;5032488;28;20173;-82
2022/10/27 11:59:19;;;;;;;8.90;3.83;;;23.40;1.00;;;;;;5033817;28;20246;-80
2022/10/27 12:01:56;;;;;;;16.17;4.20;;;23.40;1.00;;;;;;5033337;28;20859;-80
2022/10/27 12:04:59;;;;;;;10.47;3.93;;;23.40;1.00;;;;;;5032193;28;20165;-82
2022/10/27 12:07:40;;;;;;;14.13;3.50;;;23.40;1.00;;;;;;5034041;28;20169;-80
2022/10/27 12:10:14;;;;;;;15.20;3.93;;;23.50;1.00;;;;;;5014881;28;20220;-82
2022/10/27 12:12:49;;;;;;;12.23;3.50;;;23.50;1.00;;;;;;5031469;28;20173;-81
2022/10/27 12:15:20;;;;;;;9.53;3.10;;;23.60;1.00;;;;;;5033697;28;20570;-81
2022/10/27 12:18:21;;;;;;;10.00;3.93;;;23.50;1.00;;;;;;5033155;28;20640;-81
2022/10/27 12:21:12;;;;;;;6.63;3.20;;;23.50;1.00;;;;;;5015055;28;20259;-81
2022/10/27 12:24:03;;;;;;;7.17;3.17;;;23.40;1.00;;;;;;5032548;28;20162;-82
2022/10/27 12:26:56;;;;;;;9.27;3.27;;;23.50;1.00;;;;;;5032575;28;20220;-82
2022/10/27 12:29:26;;;;;;;9.53;2.70;;;23.40;1.00;;;;;;5032472;28;20261;-82
2022/10/27 12:31:59;;;;;;;9.80;4.40;;;23.40;1.00;;;;;;5032427;28;20262;-81
2022/10/27 12:34:32;;;;;;;10.67;3.40;;;23.40;1.00;;;;;;5032949;28;20199;-82
2022/10/27 12:37:03;;;;;;;7.93;2.87;;;23.40;1.00;;;;;;5032426;28;20173;-79
2022/10/27 12:39:56;;;;;;;11.87;3.67;;;23.30;1.00;;;;;;5015082;28;20173;-80
2022/10/27 12:42:31;;;;;;;11.03;3.53;;;23.30;1.00;;;;;;5015376;28;20174;-80
2022/10/27 12:45:18;;;;;;;9.17;3.93;;;23.40;1.00;;;;;;5039553;28;20185;-83
2022/10/27 12:47:56;;;;;;;11.20;3.37;;;23.40;1.00;;;;;;5036346;28;20183;-82
2022/10/27 12:50:25;;;;;;;11.33;3.63;;;23.30;1.00;;;;;;5031825;28;20201;-84
2022/10/27 12:53:18;;;;;;;8.40;3.67;;;23.40;1.00;;;;;;5032086;28;20705;-81
2022/10/27 12:55:56;;;;;;;7.33;2.73;;;23.50;1.00;;;;;;5033365;28;20181;-80
2022/10/27 12:58:53;;;;;;;10.83;3.70;;;23.40;1.00;;;;;;5031874;28;20185;-80
2022/10/27 13:01:21;;;;;;;8.93;3.20;;;23.40;1.00;;;;;;5017824;28;20168;-80
2022/10/27 13:03:55;;;;;;;12.60;3.70;;;23.50;1.00;;;;;;5034875;28;20173;-85
2022/10/27 13:06:42;;;;;;;9.37;3.37;;;23.40;1.00;;;;;;5015353;28;20287;-83
2022/10/27 13:09:28;;;;;;;10.10;3.10;;;23.20;1.00;;;;;;5015132;28;20184;-84
2022/10/27 13:12:06;;;;;;;11.97;3.57;;;23.20;1.00;;;;;;5014265;28;20299;-81
2022/10/27 13:14:50;;;;;;;8.87;3.30;;;23.20;1.00;;;;;;5032556;28;20292;-84